Time;durP1;ratioP1;P1;durP2;ratioP2;P2;SDS_P1;SDS_P2;PMS_P1;PMS_P2;Temp;Humidity;BMP_temperature;BMP_pressure;BME280_temperature;BME280_humidity;BME280_pressure;Samples;Min_cycle;Max_cycle;Signal;HPM_P1;HPM_P2
2020/12/18 00:01:37;;;;;;;5.70;2.43;;;9.10;99.90;;;;;;6096763;23;20150;-79
2020/12/18 00:04:03;;;;;;;6.60;2.70;;;9.10;99.90;;;;;;6122857;23;20527;-79
2020/12/18 00:06:37;;;;;;;3.33;2.33;;;9.10;99.90;;;;;;6122723;23;20590;-78
2020/12/18 00:12:29;;;;;;;2.95;2.00;;;9.00;99.90;;;;;;6096720;23;20170;-78
2020/12/18 00:14:55;;;;;;;3.60;2.47;;;9.00;99.90;;;;;;6096968;23;20143;-78
2020/12/18 00:17:21;;;;;;;3.70;2.42;;;9.00;99.90;;;;;;6122243;23;20506;-78
2020/12/18 00:19:47;;;;;;;8.10;2.20;;;9.00;99.90;;;;;;6122507;23;20175;-78
2020/12/18 00:22:13;;;;;;;4.83;2.10;;;9.00;99.90;;;;;;6122019;23;20531;-79
2020/12/18 00:24:41;;;;;;;5.00;2.10;;;9.00;99.90;;;;;;6122788;23;20527;-78
2020/12/18 00:27:06;;;;;;;4.88;2.33;;;8.90;99.90;;;;;;6096823;23;20153;-79
2020/12/18 00:29:32;;;;;;;5.93;2.50;;;8.90;99.90;;;;;;6122117;23;20218;-78
2020/12/18 00:31:59;;;;;;;9.13;2.80;;;8.90;99.90;;;;;;6122882;23;20965;-78
2020/12/18 00:34:25;;;;;;;4.63;2.13;;;8.90;99.90;;;;;;6122411;23;20534;-78
2020/12/18 00:36:52;;;;;;;3.73;2.10;;;8.90;99.90;;;;;;6096807;23;20854;-78
2020/12/18 00:39:18;;;;;;;3.25;1.63;;;8.90;99.90;;;;;;6120323;23;20500;-78
2020/12/18 00:41:44;;;;;;;6.13;2.83;;;8.90;99.90;;;;;;6122321;23;20202;-78
2020/12/18 00:44:10;;;;;;;6.78;2.55;;;8.90;99.90;;;;;;6096567;23;20550;-78
2020/12/18 00:46:36;;;;;;;2.87;2.13;;;8.90;99.90;;;;;;6096719;23;20521;-78
2020/12/18 00:49:01;;;;;;;2.93;1.80;;;8.90;99.90;;;;;;6121416;23;20583;-78
2020/12/18 00:51:28;;;;;;;3.35;1.90;;;8.90;99.90;;;;;;6121438;23;20173;-78
2020/12/18 00:53:54;;;;;;;3.55;1.73;;;8.90;99.90;;;;;;6122130;23;20221;-78
2020/12/18 00:56:20;;;;;;;8.32;2.80;;;8.90;99.90;;;;;;6072511;23;20535;-78
2020/12/18 00:58:47;;;;;;;4.43;2.20;;;8.80;99.90;;;;;;6120405;23;20166;-78
2020/12/18 01:01:17;;;;;;;6.47;2.42;;;8.80;99.90;;;;;;6123041;23;20473;-78
2020/12/18 01:03:43;;;;;;;4.47;2.50;;;8.80;99.90;;;;;;6096993;23;20174;-77
2020/12/18 01:06:11;;;;;;;4.85;2.30;;;8.80;99.90;;;;;;6120965;23;20599;-78
2020/12/18 01:08:42;;;;;;;3.25;2.25;;;8.80;99.90;;;;;;6096489;23;20217;-78
2020/12/18 01:11:10;;;;;;;5.20;2.60;;;8.80;99.90;;;;;;6096354;23;20239;-77
2020/12/18 01:13:36;;;;;;;7.60;2.83;;;8.80;99.90;;;;;;6120803;23;20147;-78
2020/12/18 01:16:10;;;;;;;2.53;2.17;;;8.70;99.90;;;;;;6097411;23;20215;-78
2020/12/18 01:18:36;;;;;;;6.28;3.05;;;8.70;99.90;;;;;;6096114;23;20206;-78
2020/12/18 01:21:02;;;;;;;4.13;2.30;;;8.70;99.90;;;;;;6120754;23;20512;-77
2020/12/18 01:23:34;;;;;;;5.25;2.50;;;8.70;99.90;;;;;;6119931;23;20511;-78
2020/12/18 01:26:04;;;;;;;4.25;2.53;;;8.70;99.90;;;;;;6121180;23;20131;-78
2020/12/18 01:28:30;;;;;;;4.43;2.50;;;8.70;99.90;;;;;;6121871;23;20575;-79
2020/12/18 01:30:56;;;;;;;3.22;2.63;;;8.70;99.90;;;;;;6121090;23;21048;-78
2020/12/18 01:33:23;;;;;;;6.22;3.15;;;8.70;99.90;;;;;;6074396;23;20492;-78
2020/12/18 01:35:49;;;;;;;5.97;2.40;;;8.60;99.90;;;;;;6123229;23;20154;-77
2020/12/18 01:38:15;;;;;;;6.22;2.50;;;8.60;99.90;;;;;;6097748;23;20577;-78
2020/12/18 01:40:46;;;;;;;5.70;2.83;;;8.60;99.90;;;;;;6098001;23;20548;-78
2020/12/18 01:43:14;;;;;;;4.57;2.00;;;8.60;99.90;;;;;;6098442;23;20144;-78
2020/12/18 01:45:44;;;;;;;5.88;2.50;;;8.60;99.90;;;;;;6098377;23;20135;-77
2020/12/18 01:48:12;;;;;;;4.60;2.40;;;8.70;99.90;;;;;;6097122;23;20287;-77
2020/12/18 01:50:58;;;;;;;4.68;2.47;;;8.70;99.90;;;;;;6123059;23;20155;-77
2020/12/18 01:53:29;;;;;;;4.38;2.72;;;8.70;99.90;;;;;;6122525;23;20154;-78
2020/12/18 01:56:16;;;;;;;8.10;3.63;;;8.60;99.90;;;;;;6123045;23;20158;-77
2020/12/18 01:58:50;;;;;;;5.10;2.50;;;8.60;99.90;;;;;;6074103;23;20179;-78
2020/12/18 02:01:28;;;;;;;5.60;3.13;;;8.60;99.90;;;;;;6097594;23;20131;-77
2020/12/18 02:04:15;;;;;;;4.70;2.83;;;8.60;99.90;;;;;;6097778;23;20132;-77
2020/12/18 02:06:54;;;;;;;5.75;2.42;;;8.60;99.90;;;;;;6098239;23;20135;-77
2020/12/18 02:09:23;;;;;;;5.85;2.92;;;8.60;99.90;;;;;;6121855;23;20131;-77
2020/12/18 02:11:53;;;;;;;6.18;2.85;;;8.60;99.90;;;;;;6096777;23;20160;-77
2020/12/18 02:14:20;;;;;;;3.25;2.45;;;8.50;99.90;;;;;;6122369;23;20162;-77
2020/12/18 02:16:52;;;;;;;7.47;3.30;;;8.50;99.90;;;;;;6098155;23;20498;-77
2020/12/18 02:19:36;;;;;;;4.57;2.75;;;8.50;99.90;;;;;;6097074;23;20182;-78
2020/12/18 02:22:25;;;;;;;5.30;3.35;;;8.50;99.90;;;;;;6097937;23;20147;-77
2020/12/18 02:25:09;;;;;;;4.63;3.20;;;8.50;99.90;;;;;;6098031;23;20325;-77
2020/12/18 02:27:38;;;;;;;3.67;3.00;;;8.50;99.90;;;;;;6097564;23;20170;-78
2020/12/18 02:30:09;;;;;;;4.10;3.28;;;8.50;99.90;;;;;;6074125;23;20617;-77
2020/12/18 02:32:48;;;;;;;7.10;2.95;;;8.40;99.90;;;;;;6123875;23;20147;-78
2020/12/18 02:35:14;;;;;;;3.78;2.80;;;8.40;99.90;;;;;;6097682;23;20609;-77
2020/12/18 02:37:40;;;;;;;5.47;3.50;;;8.40;99.90;;;;;;6097115;23;20483;-78
2020/12/18 02:40:14;;;;;;;4.20;3.33;;;8.40;99.90;;;;;;6097323;23;20166;-77
2020/12/18 02:43:08;;;;;;;7.03;2.80;;;8.40;99.90;;;;;;6123062;23;20155;-78
2020/12/18 02:45:35;;;;;;;5.05;2.63;;;8.40;99.90;;;;;;6097387;23;20653;-77
2020/12/18 02:48:30;;;;;;;7.68;2.90;;;8.30;99.90;;;;;;6111458;23;20933;-78
2020/12/18 02:51:09;;;;;;;5.40;3.05;;;8.30;99.90;;;;;;6097365;23;20135;-78
2020/12/18 02:53:37;;;;;;;3.10;2.80;;;8.30;99.90;;;;;;6097760;23;20229;-78
2020/12/18 02:56:24;;;;;;;4.63;2.92;;;8.30;99.90;;;;;;6097741;23;20501;-78
2020/12/18 02:59:05;;;;;;;5.57;2.85;;;8.30;99.90;;;;;;6072762;23;20653;-78
2020/12/18 03:01:32;;;;;;;4.72;3.00;;;8.30;99.90;;;;;;6096919;23;20649;-78
2020/12/18 03:04:00;;;;;;;5.97;3.70;;;8.30;99.90;;;;;;6121795;23;20230;-78
2020/12/18 03:06:49;;;;;;;4.75;2.80;;;8.20;99.90;;;;;;6070083;23;20156;-78
2020/12/18 03:09:16;;;;;;;4.25;2.88;;;8.20;99.90;;;;;;6096636;23;20640;-77
2020/12/18 03:11:42;;;;;;;4.00;2.90;;;8.20;99.90;;;;;;6097237;23;20143;-77
2020/12/18 03:14:09;;;;;;;5.50;2.92;;;8.20;99.90;;;;;;6121670;23;20620;-78
2020/12/18 03:16:43;;;;;;;5.50;2.97;;;8.20;99.90;;;;;;6097595;23;20138;-78
2020/12/18 03:19:20;;;;;;;4.40;2.60;;;8.20;99.90;;;;;;6096626;23;20589;-77
2020/12/18 03:21:49;;;;;;;4.90;2.72;;;8.20;99.90;;;;;;6121557;23;20151;-77
2020/12/18 03:24:47;;;;;;;3.83;2.78;;;8.20;99.90;;;;;;6089734;23;20162;-77
2020/12/18 03:27:33;;;;;;;4.03;3.60;;;8.20;99.90;;;;;;6106664;23;20286;-78
2020/12/18 03:30:04;;;;;;;6.75;3.28;;;8.20;99.90;;;;;;6121649;23;20135;-78
2020/12/18 03:32:31;;;;;;;4.97;4.18;;;8.20;99.90;;;;;;6097291;23;20151;-78
2020/12/18 03:35:05;;;;;;;6.45;3.90;;;8.20;99.90;;;;;;6097602;23;20141;-78
2020/12/18 03:37:34;;;;;;;4.82;3.20;;;8.20;99.90;;;;;;6072710;23;20637;-77
2020/12/18 03:40:02;;;;;;;7.93;3.80;;;8.20;99.90;;;;;;6097127;23;20179;-78
2020/12/18 03:42:34;;;;;;;7.10;3.30;;;8.20;99.90;;;;;;6121189;23;20131;-77
2020/12/18 03:45:00;;;;;;;8.13;4.00;;;8.20;99.90;;;;;;6121305;23;20218;-77
2020/12/18 03:47:49;;;;;;;7.35;2.92;;;8.20;99.90;;;;;;6072918;23;20261;-80
2020/12/18 03:50:21;;;;;;;3.55;3.22;;;8.10;99.90;;;;;;6095338;23;20174;-80
2020/12/18 03:52:51;;;;;;;4.90;3.10;;;8.20;99.90;;;;;;6097269;23;20159;-80
2020/12/18 03:55:17;;;;;;;2.92;2.63;;;8.10;99.90;;;;;;6097078;23;20151;-80
2020/12/18 03:58:18;;;;;;;7.55;3.10;;;8.10;99.90;;;;;;6106690;23;20556;-80
2020/12/18 04:01:04;;;;;;;5.40;2.72;;;8.10;99.90;;;;;;6096397;23;20201;-80
2020/12/18 04:03:30;;;;;;;6.13;2.70;;;8.10;99.90;;;;;;6049234;23;20186;-80
2020/12/18 04:05:57;;;;;;;5.53;3.45;;;8.10;99.90;;;;;;6121510;23;20145;-80
2020/12/18 04:08:23;;;;;;;7.68;3.10;;;8.10;99.90;;;;;;6096366;23;20163;-80
2020/12/18 04:11:13;;;;;;;4.25;2.97;;;8.10;99.90;;;;;;6116622;23;20147;-80
2020/12/18 04:14:00;;;;;;;6.03;3.83;;;8.10;99.90;;;;;;6098050;23;20681;-79
2020/12/18 04:16:42;;;;;;;5.72;2.60;;;8.10;99.90;;;;;;6121315;23;20187;-80
2020/12/18 04:19:08;;;;;;;3.30;2.70;;;8.10;99.90;;;;;;6120487;23;20179;-80
2020/12/18 04:21:33;;;;;;;5.50;3.50;;;8.10;99.90;;;;;;6096563;23;20538;-80
2020/12/18 04:24:09;;;;;;;3.58;2.92;;;8.10;99.90;;;;;;6121444;23;20498;-79
2020/12/18 04:26:39;;;;;;;2.40;2.20;;;8.10;99.90;;;;;;6072539;23;20151;-79
2020/12/18 04:29:07;;;;;;;8.65;4.20;;;8.10;99.90;;;;;;6096007;23;20567;-79
2020/12/18 04:31:35;;;;;;;4.32;2.38;;;8.10;99.90;;;;;;6096481;23;20222;-80
2020/12/18 04:34:02;;;;;;;3.15;2.20;;;8.10;99.90;;;;;;6096911;23;20238;-79
2020/12/18 04:36:44;;;;;;;4.25;2.42;;;8.10;99.90;;;;;;6121329;23;20131;-79
2020/12/18 04:39:12;;;;;;;7.78;2.90;;;8.10;99.90;;;;;;6095752;23;20178;-80
2020/12/18 04:41:41;;;;;;;6.22;2.10;;;8.10;99.90;;;;;;6096259;23;20153;-80
2020/12/18 04:44:13;;;;;;;2.40;2.17;;;8.10;99.90;;;;;;6097266;23;20135;-80
2020/12/18 04:46:56;;;;;;;6.00;3.60;;;8.10;99.90;;;;;;6121212;23;20178;-80
2020/12/18 04:49:24;;;;;;;8.38;2.97;;;8.10;99.90;;;;;;6120940;23;20178;-80
2020/12/18 04:52:07;;;;;;;4.05;2.30;;;8.10;99.90;;;;;;6123171;23;20202;-80
2020/12/18 04:54:42;;;;;;;7.45;2.95;;;8.10;99.90;;;;;;6097236;23;20132;-80
2020/12/18 04:57:30;;;;;;;5.35;2.25;;;8.10;99.90;;;;;;6096045;23;20170;-79
2020/12/18 05:00:04;;;;;;;5.40;2.90;;;8.10;99.90;;;;;;6121189;23;20162;-79
2020/12/18 05:02:50;;;;;;;5.07;3.08;;;8.10;99.90;;;;;;6096566;23;20221;-79
2020/12/18 05:05:16;;;;;;;4.38;2.45;;;8.10;99.90;;;;;;6121047;23;20478;-79
2020/12/18 05:07:53;;;;;;;6.20;2.47;;;8.10;99.90;;;;;;6098128;23;20174;-79
2020/12/18 05:10:21;;;;;;;5.30;2.60;;;8.10;99.90;;;;;;6123914;23;20162;-79
2020/12/18 05:13:06;;;;;;;4.60;2.33;;;8.10;99.90;;;;;;6074814;23;20143;-80
2020/12/18 05:16:04;;;;;;;4.57;2.10;;;8.10;99.90;;;;;;6108252;23;20163;-79
2020/12/18 05:18:52;;;;;;;6.53;2.63;;;8.20;99.90;;;;;;6086022;23;20704;-79
2020/12/18 05:21:39;;;;;;;4.88;2.88;;;8.10;99.90;;;;;;6098161;23;20210;-79
2020/12/18 05:24:07;;;;;;;5.45;2.80;;;8.10;99.90;;;;;;6098799;23;20132;-80
2020/12/18 05:26:38;;;;;;;4.60;2.53;;;8.10;99.90;;;;;;6098568;23;20142;-79
2020/12/18 05:29:09;;;;;;;2.88;2.15;;;8.10;99.90;;;;;;6120852;23;20261;-80
2020/12/18 05:31:58;;;;;;;3.10;2.20;;;8.10;99.90;;;;;;6106237;23;20230;-80
2020/12/18 05:34:32;;;;;;;4.93;3.10;;;8.10;99.90;;;;;;6099038;23;20138;-79
2020/12/18 05:37:15;;;;;;;4.75;3.60;;;8.10;99.90;;;;;;6094635;23;20201;-79
2020/12/18 05:40:04;;;;;;;6.15;2.78;;;8.10;99.90;;;;;;6096857;23;20194;-80
2020/12/18 05:42:52;;;;;;;4.40;2.80;;;8.10;99.90;;;;;;6097360;23;20135;-79
2020/12/18 05:45:26;;;;;;;4.97;2.50;;;8.10;99.90;;;;;;6098446;23;20215;-80
2020/12/18 05:48:14;;;;;;;3.08;2.08;;;8.00;99.90;;;;;;6087427;23;20675;-80
2020/12/18 05:50:53;;;;;;;5.65;2.42;;;8.00;99.90;;;;;;6077104;23;20227;-80
2020/12/18 05:53:20;;;;;;;9.60;2.80;;;8.10;99.90;;;;;;6074522;23;20491;-79
2020/12/18 05:55:53;;;;;;;6.00;3.45;;;8.10;99.90;;;;;;6098165;23;20238;-79
2020/12/18 05:58:31;;;;;;;5.95;2.50;;;8.10;99.90;;;;;;6097608;23;20174;-79
2020/12/18 06:01:16;;;;;;;11.93;3.13;;;8.00;99.90;;;;;;6097756;23;20707;-79
2020/12/18 06:04:24;;;;;;;5.85;3.30;;;8.00;99.90;;;;;;6125217;23;20155;-79
2020/12/18 06:06:54;;;;;;;4.45;2.65;;;8.00;99.90;;;;;;6099134;23;20166;-79
2020/12/18 06:09:39;;;;;;;2.83;1.80;;;8.00;99.90;;;;;;6097700;23;20500;-79
2020/12/18 06:12:07;;;;;;;2.85;1.90;;;8.00;99.90;;;;;;6097853;23;20196;-79
2020/12/18 06:14:34;;;;;;;7.47;3.03;;;8.00;99.90;;;;;;6074148;23;20159;-79
2020/12/18 06:17:08;;;;;;;3.53;1.77;;;8.00;99.90;;;;;;6122301;23;20136;-79
2020/12/18 06:19:43;;;;;;;4.60;2.00;;;8.00;99.90;;;;;;6097713;23;20159;-79
2020/12/18 06:22:13;;;;;;;10.73;3.13;;;8.00;99.90;;;;;;6097648;23;20147;-79
2020/12/18 06:25:04;;;;;;;6.82;2.38;;;8.00;99.90;;;;;;6112997;23;20154;-79
2020/12/18 06:28:02;;;;;;;6.43;2.30;;;8.00;99.90;;;;;;6123155;23;20171;-79
2020/12/18 06:30:41;;;;;;;5.05;2.47;;;8.00;99.90;;;;;;6121965;23;20710;-79
2020/12/18 06:33:52;;;;;;;5.90;2.22;;;8.00;99.90;;;;;;6082257;23;20201;-79
2020/12/18 06:36:44;;;;;;;6.10;3.13;;;7.90;99.90;;;;;;6088808;23;20155;-80
2020/12/18 06:39:34;;;;;;;4.40;2.47;;;7.90;99.90;;;;;;6096803;23;20178;-80
2020/12/18 06:42:23;;;;;;;3.25;2.60;;;8.00;99.90;;;;;;6124640;23;20155;-80
2020/12/18 06:45:20;;;;;;;5.22;2.20;;;8.00;99.90;;;;;;6104306;23;20139;-80
2020/12/18 06:47:58;;;;;;;5.47;2.20;;;8.00;99.90;;;;;;6122772;23;20183;-80
2020/12/18 06:50:34;;;;;;;5.45;2.92;;;8.00;99.90;;;;;;6123384;23;20135;-79
2020/12/18 06:53:35;;;;;;;5.25;2.50;;;8.00;99.90;;;;;;6104980;23;20163;-80
2020/12/18 06:56:28;;;;;;;3.90;2.50;;;8.00;99.90;;;;;;6097781;23;20785;-80
2020/12/18 06:59:18;;;;;;;4.40;2.15;;;8.00;99.90;;;;;;6121199;23;20186;-79
2020/12/18 07:01:44;;;;;;;3.97;2.78;;;8.00;99.90;;;;;;6123089;23;20480;-81
2020/12/18 07:04:21;;;;;;;6.87;2.60;;;8.00;99.90;;;;;;6123483;23;20143;-81
2020/12/18 07:06:46;;;;;;;4.50;3.20;;;8.00;99.90;;;;;;6122141;23;20659;-81
2020/12/18 07:09:14;;;;;;;5.43;3.50;;;7.90;99.90;;;;;;6096431;23;20174;-81
2020/12/18 07:11:41;;;;;;;5.55;2.90;;;8.00;99.90;;;;;;6097223;23;20547;-81
2020/12/18 07:14:15;;;;;;;3.70;3.20;;;8.00;99.90;;;;;;6097672;23;20151;-81
2020/12/18 07:16:52;;;;;;;6.60;2.58;;;8.00;99.90;;;;;;6073554;23;20167;-80
2020/12/18 07:19:18;;;;;;;4.80;3.03;;;8.00;99.90;;;;;;6122359;23;20178;-81
2020/12/18 07:22:00;;;;;;;5.05;2.75;;;8.10;99.90;;;;;;6122951;23;20163;-80
2020/12/18 07:24:27;;;;;;;4.47;2.55;;;8.10;99.90;;;;;;6097644;23;20139;-81
2020/12/18 07:26:53;;;;;;;3.23;2.93;;;8.10;99.90;;;;;;6073336;23;20147;-81
2020/12/18 07:29:30;;;;;;;4.77;3.10;;;8.00;99.90;;;;;;6095462;23;20171;-80
2020/12/18 07:32:03;;;;;;;4.40;2.65;;;8.00;99.90;;;;;;6113840;23;20155;-79
2020/12/18 07:34:29;;;;;;;6.13;3.92;;;8.00;99.90;;;;;;6096936;23;20241;-79
2020/12/18 07:36:55;;;;;;;5.03;2.73;;;8.00;99.90;;;;;;6123298;23;20151;-79
2020/12/18 07:39:20;;;;;;;6.10;2.77;;;8.00;99.90;;;;;;6096822;23;20696;-79
2020/12/18 07:41:46;;;;;;;6.00;3.08;;;8.00;99.90;;;;;;6123109;23;20668;-79
2020/12/18 07:44:12;;;;;;;3.30;3.00;;;7.90;99.90;;;;;;6097059;23;20151;-80
2020/12/18 07:46:38;;;;;;;4.40;2.13;;;8.00;99.90;;;;;;6122759;23;20173;-80
2020/12/18 07:49:08;;;;;;;5.63;3.60;;;8.00;99.90;;;;;;6121622;23;20181;-79
2020/12/18 07:51:36;;;;;;;5.13;2.63;;;8.00;99.90;;;;;;6122169;23;21204;-79
2020/12/18 07:54:01;;;;;;;13.23;3.95;;;8.00;99.90;;;;;;6123040;23;20460;-79
2020/12/18 07:56:27;;;;;;;4.07;2.93;;;8.00;99.90;;;;;;6096920;23;20157;-80
2020/12/18 07:58:57;;;;;;;6.47;3.50;;;8.00;99.90;;;;;;6118856;23;20687;-81
2020/12/18 08:01:25;;;;;;;8.00;2.75;;;8.00;99.90;;;;;;6122707;23;20202;-80
2020/12/18 08:03:52;;;;;;;5.47;3.50;;;8.10;99.90;;;;;;6095596;23;20652;-80
2020/12/18 08:06:23;;;;;;;3.75;2.70;;;8.10;99.90;;;;;;6072836;23;20626;-79
2020/12/18 08:08:52;;;;;;;5.20;3.88;;;8.20;99.90;;;;;;6096124;23;20167;-80
2020/12/18 08:11:19;;;;;;;3.47;3.00;;;8.20;99.90;;;;;;6122693;23;20515;-80
2020/12/18 08:13:45;;;;;;;4.32;2.50;;;8.30;99.90;;;;;;6073131;23;20238;-79
2020/12/18 08:16:20;;;;;;;3.72;2.33;;;8.40;99.90;;;;;;6122658;23;20151;-79
2020/12/18 08:18:51;;;;;;;8.48;3.03;;;8.40;99.90;;;;;;6120618;23;20233;-79
2020/12/18 08:21:22;;;;;;;5.35;3.15;;;8.50;99.90;;;;;;6072475;23;20190;-79
2020/12/18 08:23:54;;;;;;;5.30;3.28;;;8.40;99.90;;;;;;6095977;23;20734;-79
2020/12/18 08:26:23;;;;;;;7.15;3.50;;;8.50;99.90;;;;;;6122533;23;20209;-80
2020/12/18 08:28:50;;;;;;;8.73;3.83;;;8.40;99.90;;;;;;6121963;23;20167;-80
2020/12/18 08:31:17;;;;;;;5.35;3.30;;;8.50;99.90;;;;;;6121960;23;20277;-79
2020/12/18 08:33:54;;;;;;;5.85;3.25;;;8.50;99.90;;;;;;6123522;23;20153;-79
2020/12/18 08:36:23;;;;;;;3.45;2.80;;;8.60;99.90;;;;;;6123014;23;20147;-80
2020/12/18 08:38:59;;;;;;;4.20;3.22;;;8.70;99.90;;;;;;6121282;23;20683;-79
2020/12/18 08:41:25;;;;;;;4.00;3.00;;;8.70;99.90;;;;;;6122010;23;20178;-80
2020/12/18 08:44:04;;;;;;;7.20;4.25;;;8.70;99.90;;;;;;6096653;23;20240;-81
2020/12/18 08:46:33;;;;;;;3.95;3.00;;;8.70;99.90;;;;;;6097131;23;20159;-81
2020/12/18 08:49:00;;;;;;;6.03;3.17;;;8.80;99.90;;;;;;6121859;23;20175;-79
2020/12/18 08:51:28;;;;;;;3.80;2.42;;;8.90;99.90;;;;;;6097142;23;20783;-80
2020/12/18 08:53:54;;;;;;;3.50;2.80;;;8.90;99.90;;;;;;6071552;23;20151;-79
2020/12/18 08:56:20;;;;;;;5.67;3.40;;;9.00;99.90;;;;;;6122399;23;20158;-79
2020/12/18 08:58:46;;;;;;;7.45;3.13;;;9.00;99.90;;;;;;6095136;23;20197;-80
2020/12/18 09:01:22;;;;;;;6.63;2.90;;;9.10;99.90;;;;;;6095474;23;20163;-80
2020/12/18 09:03:48;;;;;;;3.50;2.55;;;9.10;99.90;;;;;;6121365;23;21323;-80
2020/12/18 09:06:21;;;;;;;4.22;3.35;;;9.20;99.90;;;;;;6122528;23;20135;-80
2020/12/18 09:08:48;;;;;;;4.25;2.53;;;9.30;99.90;;;;;;6095524;23;20171;-80
2020/12/18 09:11:23;;;;;;;9.40;3.07;;;9.30;99.90;;;;;;6123801;23;20151;-79
2020/12/18 09:13:48;;;;;;;4.28;2.95;;;9.30;99.90;;;;;;6121461;23;20648;-79
2020/12/18 09:16:16;;;;;;;7.30;3.00;;;9.40;99.90;;;;;;6095920;23;20167;-81
2020/12/18 09:18:44;;;;;;;3.85;2.85;;;9.40;99.90;;;;;;6121498;23;20723;-80
2020/12/18 09:21:17;;;;;;;4.35;3.20;;;9.50;99.90;;;;;;6122051;23;20175;-81
2020/12/18 09:23:46;;;;;;;3.17;2.65;;;9.60;99.90;;;;;;6122183;23;20187;-81
2020/12/18 09:26:21;;;;;;;2.70;2.03;;;9.60;99.90;;;;;;6096355;23;20159;-81
2020/12/18 09:28:47;;;;;;;3.17;2.70;;;9.70;99.90;;;;;;6121024;23;20525;-80
2020/12/18 09:31:13;;;;;;;7.40;3.08;;;9.70;99.90;;;;;;6121610;23;20668;-80
2020/12/18 09:33:39;;;;;;;5.70;2.40;;;9.80;99.90;;;;;;6121895;23;20171;-80
2020/12/18 09:36:10;;;;;;;4.47;2.80;;;9.80;99.90;;;;;;6121175;23;20760;-80
2020/12/18 09:38:41;;;;;;;3.13;2.58;;;9.80;99.90;;;;;;6095243;23;20641;-81
2020/12/18 09:41:13;;;;;;;6.15;2.65;;;9.90;99.90;;;;;;6096190;23;20159;-81
2020/12/18 09:43:39;;;;;;;2.40;1.92;;;10.00;99.90;;;;;;6121738;23;20157;-80
2020/12/18 09:46:11;;;;;;;3.72;2.40;;;10.10;99.90;;;;;;6122569;23;20147;-81
2020/12/18 09:49:26;;;;;;;4.75;2.80;;;10.20;99.90;;;;;;6139455;23;20198;-76
2020/12/18 09:55:20;;;;;;;3.00;2.70;;;10.30;99.90;;;;;;6149768;23;20705;-76
2020/12/18 09:58:07;;;;;;;3.58;2.90;;;10.30;99.90;;;;;;6100921;23;20521;-76
2020/12/18 10:01:09;;;;;;;4.43;3.40;;;10.40;99.90;;;;;;6096509;23;21332;-76
2020/12/18 10:03:46;;;;;;;4.30;2.75;;;10.40;99.90;;;;;;6124945;23;20138;-76
2020/12/18 10:06:39;;;;;;;4.57;2.50;;;10.60;99.90;;;;;;6098874;23;20158;-76
2020/12/18 10:09:42;;;;;;;5.32;2.60;;;10.60;99.90;;;;;;6102211;23;20746;-76
2020/12/18 10:12:13;;;;;;;6.18;2.63;;;10.60;99.90;;;;;;6124703;23;20766;-76
2020/12/18 10:18:37;;;;;;;4.80;2.80;;;10.60;99.90;;;;;;6084760;23;21030;-76
2020/12/18 10:21:03;;;;;;;3.75;2.60;;;10.60;99.90;;;;;;6098052;23;20743;-76
2020/12/18 10:23:30;;;;;;;3.67;3.33;;;10.60;99.90;;;;;;6123931;23;20147;-76
2020/12/18 10:25:57;;;;;;;2.67;1.98;;;10.70;99.90;;;;;;6124950;23;20546;-76
2020/12/18 10:28:26;;;;;;;5.85;2.88;;;10.70;99.90;;;;;;6099061;23;20174;-76
2020/12/18 10:30:55;;;;;;;2.38;1.85;;;10.70;99.90;;;;;;6123873;23;20155;-76
2020/12/18 10:33:21;;;;;;;4.00;2.25;;;10.70;99.90;;;;;;6123775;23;20163;-76
2020/12/18 10:35:47;;;;;;;4.05;2.80;;;10.80;99.90;;;;;;6124054;23;20147;-76
2020/12/18 10:38:24;;;;;;;4.63;2.90;;;10.80;99.90;;;;;;6096585;23;21103;-76
2020/12/18 10:40:50;;;;;;;4.93;3.03;;;10.70;99.90;;;;;;6096532;23;20776;-75
2020/12/18 10:43:16;;;;;;;3.20;2.87;;;10.70;99.90;;;;;;6123531;23;20143;-76
2020/12/18 10:45:42;;;;;;;4.40;2.63;;;10.70;99.90;;;;;;6123825;23;20523;-76
2020/12/18 10:48:09;;;;;;;4.00;2.90;;;10.80;99.90;;;;;;6121835;23;20672;-75
2020/12/18 10:50:35;;;;;;;4.20;2.60;;;10.80;99.90;;;;;;6124035;23;20154;-75
2020/12/18 10:53:03;;;;;;;2.23;1.97;;;10.90;99.90;;;;;;6124229;23;20166;-75
2020/12/18 10:55:29;;;;;;;4.72;2.65;;;10.90;99.90;;;;;;6124507;23;21107;-75
2020/12/18 10:57:54;;;;;;;3.43;2.07;;;11.00;99.90;;;;;;6123656;23;20171;-75
2020/12/18 11:00:20;;;;;;;3.30;1.90;;;11.00;99.90;;;;;;6098710;23;20206;-76
2020/12/18 11:02:46;;;;;;;3.63;2.30;;;11.10;99.90;;;;;;6099071;23;20403;-75
2020/12/18 11:05:12;;;;;;;3.33;2.10;;;11.20;99.90;;;;;;6075496;23;20147;-76
2020/12/18 11:07:38;;;;;;;4.45;2.50;;;11.20;99.90;;;;;;6124633;23;20493;-76
2020/12/18 11:10:04;;;;;;;7.03;2.57;;;11.20;99.90;;;;;;6124316;23;20181;-76
2020/12/18 11:12:30;;;;;;;3.50;2.72;;;11.20;99.90;;;;;;6110418;23;20159;-76
2020/12/18 11:14:56;;;;;;;2.80;1.97;;;11.20;99.90;;;;;;6136975;23;20151;-75
2020/12/18 11:17:21;;;;;;;5.80;2.67;;;11.30;99.90;;;;;;6110231;23;20151;-76
2020/12/18 11:19:47;;;;;;;3.40;2.43;;;11.20;99.90;;;;;;6136465;23;20226;-76
2020/12/18 11:22:13;;;;;;;3.27;2.20;;;11.30;99.90;;;;;;6107305;23;20147;-76
2020/12/18 11:24:39;;;;;;;5.20;2.87;;;11.40;99.90;;;;;;6124334;23;20531;-76
2020/12/18 11:27:05;;;;;;;5.20;2.90;;;11.30;99.90;;;;;;6123040;23;20272;-76
2020/12/18 11:29:30;;;;;;;3.50;2.67;;;11.30;99.90;;;;;;6122158;23;20558;-76
2020/12/18 11:31:56;;;;;;;4.43;2.50;;;11.40;99.90;;;;;;6095602;23;21045;-76
2020/12/18 11:34:22;;;;;;;5.60;2.60;;;11.40;99.90;;;;;;6121823;23;20679;-76
2020/12/18 11:36:48;;;;;;;3.23;2.37;;;11.30;99.90;;;;;;6072924;23;20535;-76
2020/12/18 11:39:15;;;;;;;3.37;2.13;;;11.40;99.90;;;;;;6121349;23;20167;-76
2020/12/18 11:41:41;;;;;;;7.15;2.83;;;11.40;99.90;;;;;;6097408;23;20574;-77
2020/12/18 11:44:07;;;;;;;3.00;2.13;;;11.50;99.90;;;;;;6098304;23;20143;-76
2020/12/18 11:46:52;;;;;;;3.70;2.10;;;11.50;99.90;;;;;;6123273;23;21060;-77
2020/12/18 11:49:42;;;;;;;3.03;2.17;;;11.60;99.90;;;;;;6097860;23;20687;-76
2020/12/18 11:52:20;;;;;;;4.70;2.75;;;11.60;99.90;;;;;;6123087;23;20132;-76
2020/12/18 11:54:58;;;;;;;3.08;2.30;;;11.60;99.90;;;;;;6123878;23;20159;-76
2020/12/18 11:57:23;;;;;;;3.13;2.13;;;11.70;99.90;;;;;;6097439;23;20138;-77
2020/12/18 11:59:49;;;;;;;4.23;1.73;;;11.70;99.90;;;;;;6097461;23;20559;-77
2020/12/18 12:02:15;;;;;;;6.70;3.13;;;11.80;99.90;;;;;;6073349;23;20206;-77
2020/12/18 12:04:45;;;;;;;6.93;4.10;;;11.90;99.90;;;;;;6123554;23;20528;-77
2020/12/18 12:07:10;;;;;;;6.05;4.15;;;11.80;99.90;;;;;;6122883;23;20154;-76
2020/12/18 12:09:36;;;;;;;4.53;2.53;;;11.90;99.90;;;;;;6122488;23;20275;-77
2020/12/18 12:12:02;;;;;;;4.40;2.43;;;11.90;99.90;;;;;;6096521;23;20550;-77
2020/12/18 12:14:28;;;;;;;3.77;2.50;;;11.90;99.90;;;;;;6122958;23;20530;-77
2020/12/18 12:16:54;;;;;;;3.55;2.05;;;11.90;99.90;;;;;;6049431;23;20554;-77
2020/12/18 12:19:22;;;;;;;2.83;2.03;;;11.90;99.90;;;;;;6120668;23;20167;-77
2020/12/18 12:21:52;;;;;;;3.67;1.80;;;11.90;99.90;;;;;;6073022;23;20155;-77
2020/12/18 12:24:18;;;;;;;5.30;1.87;;;12.00;99.90;;;;;;6097118;23;20147;-77
2020/12/18 12:26:47;;;;;;;2.67;1.47;;;11.90;99.90;;;;;;6073092;23;20848;-77
2020/12/18 12:29:17;;;;;;;4.28;2.00;;;12.00;99.90;;;;;;6073119;23;20246;-77
2020/12/18 12:31:43;;;;;;;3.38;2.25;;;12.00;99.90;;;;;;6096759;23;20147;-77
2020/12/18 12:34:09;;;;;;;3.07;2.13;;;12.00;99.90;;;;;;6122739;23;20151;-77
2020/12/18 12:36:34;;;;;;;4.43;2.00;;;12.00;99.90;;;;;;6122408;23;20531;-77
2020/12/18 12:39:00;;;;;;;3.90;1.90;;;12.00;99.90;;;;;;6096190;23;20174;-77
2020/12/18 12:41:26;;;;;;;3.00;1.70;;;12.00;99.90;;;;;;6122634;23;20171;-77
2020/12/18 12:43:52;;;;;;;4.50;1.70;;;12.10;99.90;;;;;;6097124;23;20819;-76
2020/12/18 12:46:20;;;;;;;3.57;1.87;;;12.10;99.90;;;;;;6123180;23;20665;-77
2020/12/18 12:48:47;;;;;;;3.13;1.75;;;12.10;99.90;;;;;;6096657;23;20593;-76
2020/12/18 12:51:16;;;;;;;3.33;1.92;;;12.10;99.90;;;;;;6122677;23;20151;-77
2020/12/18 12:53:42;;;;;;;3.25;2.25;;;12.10;99.90;;;;;;6097349;23;20210;-77
2020/12/18 12:56:08;;;;;;;4.00;2.47;;;12.10;99.90;;;;;;6096149;23;20690;-77
2020/12/18 12:58:34;;;;;;;5.40;2.80;;;12.10;99.90;;;;;;6123031;23;20742;-77
2020/12/18 13:01:00;;;;;;;3.33;3.03;;;12.10;99.90;;;;;;6097942;23;20171;-77
2020/12/18 13:03:52;;;;;;;3.25;2.40;;;12.10;99.90;;;;;;6074418;23;20563;-77
2020/12/18 13:06:22;;;;;;;3.95;2.78;;;12.20;99.90;;;;;;6076008;23;20198;-77
2020/12/18 13:08:49;;;;;;;6.97;2.30;;;12.20;99.90;;;;;;6126609;23;20195;-77
2020/12/18 13:11:15;;;;;;;5.45;2.53;;;12.20;99.90;;;;;;6126848;23;20194;-77
2020/12/18 13:13:41;;;;;;;4.70;2.20;;;12.20;99.90;;;;;;6126404;23;20158;-77
2020/12/18 13:16:14;;;;;;;5.15;2.30;;;12.20;99.90;;;;;;6100113;23;20531;-77
2020/12/18 13:18:40;;;;;;;3.78;2.05;;;12.20;99.90;;;;;;6127143;23;20178;-77
2020/12/18 13:21:06;;;;;;;3.30;1.70;;;12.20;99.90;;;;;;6121918;23;20233;-77
2020/12/18 13:23:32;;;;;;;2.45;1.90;;;12.20;99.90;;;;;;6072432;23;20148;-77
2020/12/18 13:25:58;;;;;;;3.37;1.83;;;12.20;99.90;;;;;;6122336;23;20902;-77
2020/12/18 13:28:26;;;;;;;5.28;2.30;;;12.20;99.90;;;;;;6123845;23;20171;-77
2020/12/18 13:30:52;;;;;;;3.78;2.65;;;12.30;99.90;;;;;;6074443;23;20167;-77